METAR Data
IDs: Format: Raw Decoded Include TAF

Data at: 0837 UTC 13 Aug 2022

LFMD 130830Z AUTO 10006KT 040V160 9999 BKN033 27/18 Q1013 NOSIG